createdAt,value
2023-04-20T00:00:13.180Z,9.00
2023-04-20T00:03:01.967Z,7.30
2023-04-20T00:05:32.309Z,10.10
2023-04-20T00:08:01.379Z,10.60
2023-04-20T00:10:29.680Z,9.50
2023-04-20T00:12:58.008Z,9.70
2023-04-20T00:15:26.230Z,9.20
2023-04-20T00:17:54.503Z,8.20
2023-04-20T00:20:23.043Z,8.30
2023-04-20T00:22:51.418Z,8.80
2023-04-20T00:25:21.064Z,8.00
2023-04-20T00:27:49.165Z,5.50
2023-04-20T00:30:17.248Z,6.20
2023-04-20T00:32:45.499Z,6.50
2023-04-20T00:35:14.842Z,5.80
2023-04-20T00:37:42.957Z,5.60
2023-04-20T00:40:11.603Z,9.10
2023-04-20T00:42:41.725Z,6.60
2023-04-20T00:45:10.831Z,6.40
2023-04-20T00:47:39.076Z,10.50
2023-04-20T00:50:08.408Z,6.20
2023-04-20T00:52:36.794Z,7.90
2023-04-20T00:55:06.312Z,5.10
2023-04-20T00:57:35.674Z,7.20
2023-04-20T01:00:06.751Z,7.90
2023-04-20T01:02:35.091Z,7.90
2023-04-20T01:05:04.223Z,6.00
2023-04-20T01:07:32.717Z,6.70
2023-04-20T01:10:00.844Z,7.50
2023-04-20T01:12:28.910Z,8.80
2023-04-20T01:14:57.117Z,5.40
2023-04-20T01:17:25.835Z,7.00
2023-04-20T01:19:54.172Z,7.30
2023-04-20T01:22:23.046Z,8.80
2023-04-20T01:24:51.216Z,6.20
2023-04-20T01:27:21.244Z,7.70
2023-04-20T01:29:49.284Z,7.40
2023-04-20T01:32:17.477Z,7.30
2023-04-20T01:34:45.556Z,11.20
2023-04-20T01:37:13.828Z,9.40
2023-04-20T01:39:42.178Z,10.90
2023-04-20T01:42:10.684Z,6.90
2023-04-20T01:44:39.653Z,7.80
2023-04-20T01:47:07.916Z,6.30
2023-04-20T01:49:36.124Z,7.70
2023-04-20T01:52:04.577Z,7.90
2023-04-20T01:54:32.814Z,6.60
2023-04-20T01:57:03.620Z,5.50
2023-04-20T01:59:31.803Z,5.40
2023-04-20T02:02:02.934Z,7.00
2023-04-20T02:04:34.077Z,6.30
2023-04-20T02:07:02.362Z,12.30
2023-04-20T02:09:30.383Z,8.00
2023-04-20T02:11:58.583Z,5.40
2023-04-20T02:14:27.007Z,5.70
2023-04-20T02:16:55.475Z,9.40
2023-04-20T02:19:24.368Z,6.40
2023-04-20T02:21:52.515Z,6.50
2023-04-20T02:24:20.689Z,8.70
2023-04-20T02:26:49.783Z,7.70
2023-04-20T02:29:17.987Z,6.10
2023-04-20T02:31:47.031Z,6.70
2023-04-20T02:34:17.263Z,9.90
2023-04-20T02:36:45.359Z,6.90
2023-04-20T02:39:14.440Z,7.40
2023-04-20T02:41:42.613Z,7.00
2023-04-20T02:44:10.696Z,6.10
2023-04-20T02:46:38.827Z,8.50
2023-04-20T02:49:07.449Z,10.70
2023-04-20T02:51:38.695Z,6.00
2023-04-20T02:54:07.011Z,10.20
2023-04-20T02:56:35.067Z,7.10
2023-04-20T02:59:07.004Z,6.30
2023-04-20T03:02:05.045Z,6.70
2023-04-20T03:04:33.450Z,5.60
2023-04-20T03:07:11.355Z,8.20
2023-04-20T03:09:39.797Z,6.70
2023-04-20T03:12:37.046Z,7.90
2023-04-20T03:15:18.574Z,6.60
2023-04-20T03:18:13.412Z,8.40
2023-04-20T03:20:42.173Z,7.50
2023-04-20T03:23:11.389Z,6.80
2023-04-20T03:25:39.636Z,6.00
2023-04-20T03:28:17.847Z,11.10
2023-04-20T03:30:46.436Z,8.90
2023-04-20T03:33:16.543Z,10.60
2023-04-20T03:35:44.821Z,11.40
2023-04-20T03:38:13.101Z,9.60
2023-04-20T03:40:41.266Z,8.20
2023-04-20T03:43:09.360Z,8.40
2023-04-20T03:45:38.683Z,10.20
2023-04-20T03:48:06.761Z,8.30
2023-04-20T03:50:34.991Z,7.80
2023-04-20T03:53:03.085Z,5.40
2023-04-20T03:55:31.598Z,9.40
2023-04-20T03:58:05.478Z,9.70
2023-04-20T04:00:39.768Z,9.50
2023-04-20T04:03:08.389Z,6.20
2023-04-20T04:05:37.143Z,6.10
2023-04-20T04:08:05.439Z,6.30
2023-04-20T04:10:33.992Z,6.20
2023-04-20T04:13:02.373Z,8.10
2023-04-20T04:15:32.153Z,7.10
2023-04-20T04:18:04.135Z,13.20
2023-04-20T04:20:33.058Z,18.90
2023-04-20T04:23:01.621Z,10.00
2023-04-20T04:25:44.138Z,6.60
2023-04-20T04:28:14.948Z,7.40
2023-04-20T04:30:52.680Z,7.50
2023-04-20T04:33:22.010Z,23.80
2023-04-20T04:35:50.461Z,22.90
2023-04-20T04:38:19.178Z,23.50
2023-04-20T04:40:48.787Z,25.50
2023-04-20T04:43:17.452Z,30.80
2023-04-20T04:45:51.123Z,20.50
2023-04-20T04:48:20.649Z,18.20
2023-04-20T04:50:48.723Z,16.90
2023-04-20T04:53:16.876Z,12.80
2023-04-20T04:55:44.915Z,16.20
2023-04-20T04:58:13.066Z,18.10
2023-04-20T05:00:41.166Z,13.60
2023-04-20T05:03:09.343Z,19.90
2023-04-20T05:05:38.308Z,13.40
2023-04-20T05:08:06.317Z,17.20
2023-04-20T05:10:34.292Z,13.50
2023-04-20T05:13:02.424Z,12.40
2023-04-20T05:15:30.538Z,12.80
2023-04-20T05:17:58.664Z,13.30
2023-04-20T05:20:26.893Z,15.80
2023-04-20T05:22:55.592Z,15.40
2023-04-20T05:25:23.807Z,17.80
2023-04-20T05:27:51.899Z,13.50
2023-04-20T05:30:21.776Z,11.80
2023-04-20T05:32:52.189Z,11.60
2023-04-20T05:35:22.554Z,10.30
2023-04-20T05:37:50.825Z,11.10
2023-04-20T05:40:19.337Z,10.10
2023-04-20T05:42:47.535Z,8.90
2023-04-20T05:45:16.005Z,13.10
2023-04-20T05:47:55.731Z,10.80
2023-04-20T05:50:25.579Z,14.30
2023-04-20T05:52:54.274Z,11.70
2023-04-20T05:55:23.020Z,8.50
2023-04-20T05:57:52.534Z,12.80
2023-04-20T06:00:22.547Z,11.90
2023-04-20T06:02:54.576Z,16.70
2023-04-20T06:05:23.097Z,14.30
2023-04-20T06:07:51.680Z,57.20
2023-04-20T06:10:19.957Z,14.80
2023-04-20T06:12:48.287Z,15.20
2023-04-20T06:15:16.553Z,15.10
2023-04-20T06:17:44.622Z,17.20
2023-04-20T06:20:12.945Z,15.90
2023-04-20T06:22:44.956Z,13.70
2023-04-20T06:25:14.024Z,16.80
2023-04-20T06:27:42.601Z,11.20
2023-04-20T06:30:11.793Z,19.40
2023-04-20T06:32:40.196Z,11.20
2023-04-20T06:35:08.926Z,9.50
2023-04-20T06:37:37.200Z,13.20
2023-04-20T06:40:09.513Z,27.00
2023-04-20T06:42:37.865Z,17.90
2023-04-20T06:45:07.235Z,9.20
2023-04-20T06:47:35.636Z,12.20
2023-04-20T06:50:10.241Z,10.40
2023-04-20T06:52:39.501Z,8.60
2023-04-20T06:55:08.520Z,10.80
2023-04-20T06:57:38.821Z,10.40
2023-04-20T07:00:09.189Z,8.10
2023-04-20T07:02:44.636Z,11.20
2023-04-20T07:05:13.562Z,9.20
2023-04-20T07:07:42.359Z,9.80
2023-04-20T07:10:13.691Z,9.60
2023-04-20T07:12:43.605Z,17.90
2023-04-20T07:15:12.829Z,15.00
2023-04-20T07:17:41.379Z,9.50
2023-04-20T07:20:10.130Z,12.30
2023-04-20T07:22:39.061Z,8.80
2023-04-20T07:25:09.112Z,6.90
2023-04-20T07:27:40.112Z,8.50
2023-04-20T07:30:10.598Z,9.00
2023-04-20T07:32:40.983Z,10.70
2023-04-20T07:35:09.842Z,7.90
2023-04-20T07:37:38.045Z,12.00
2023-04-20T07:40:07.273Z,10.10
2023-04-20T07:42:37.338Z,7.30
2023-04-20T07:45:07.128Z,19.40
2023-04-20T07:47:36.007Z,14.50
2023-04-20T07:50:06.024Z,8.20
2023-04-20T07:52:34.600Z,8.00
2023-04-20T07:55:03.252Z,7.20
2023-04-20T07:57:32.439Z,10.00
2023-04-20T08:00:00.467Z,7.20
2023-04-20T08:02:28.876Z,9.70
2023-04-20T08:04:57.612Z,9.90
2023-04-20T08:07:26.389Z,9.80
2023-04-20T08:09:54.641Z,9.70
2023-04-20T08:12:23.204Z,15.80
2023-04-20T08:14:51.899Z,14.30
2023-04-20T08:17:20.878Z,11.40
2023-04-20T08:19:49.048Z,23.50
2023-04-20T08:22:17.207Z,15.80
2023-04-20T08:24:45.419Z,8.90
2023-04-20T08:27:13.695Z,6.90
2023-04-20T08:29:41.869Z,9.80
2023-04-20T08:32:12.495Z,7.20
2023-04-20T08:34:41.189Z,5.50
2023-04-20T08:37:09.261Z,6.40
2023-04-20T08:39:39.101Z,6.40
2023-04-20T08:42:07.276Z,4.00
2023-04-20T08:44:35.630Z,8.90
2023-04-20T08:47:04.065Z,8.50
2023-04-20T08:49:33.149Z,6.00
2023-04-20T08:52:01.263Z,8.30
2023-04-20T08:54:29.361Z,9.40
2023-04-20T08:56:58.927Z,7.30
2023-04-20T08:59:27.769Z,8.00
2023-04-20T09:01:55.975Z,9.10
2023-04-20T09:04:27.146Z,7.10
2023-04-20T09:06:56.798Z,13.30
2023-04-20T09:09:27.719Z,12.20
2023-04-20T09:12:08.033Z,13.50
2023-04-20T09:14:47.476Z,18.10
2023-04-20T09:17:18.113Z,10.30
2023-04-20T09:19:54.538Z,8.30
2023-04-20T09:22:36.771Z,5.50
2023-04-20T09:25:15.468Z,4.90
2023-04-20T09:27:43.514Z,4.90
2023-04-20T09:30:12.307Z,7.30
2023-04-20T09:32:40.578Z,5.20
2023-04-20T09:35:09.366Z,5.60
2023-04-20T09:37:47.840Z,7.10
2023-04-20T09:40:16.721Z,6.70
2023-04-20T09:42:46.008Z,6.30
2023-04-20T09:45:16.547Z,7.70
2023-04-20T09:47:46.095Z,5.80
2023-04-20T09:50:26.755Z,12.20
2023-04-20T09:53:00.851Z,8.30
2023-04-20T09:55:31.418Z,13.20
2023-04-20T09:58:03.124Z,6.40
2023-04-20T10:00:31.568Z,6.10
2023-04-20T10:02:59.913Z,6.60
2023-04-20T10:05:39.632Z,6.20
2023-04-20T10:08:08.148Z,6.40
2023-04-20T10:10:47.953Z,5.80
2023-04-20T10:13:21.846Z,5.10
2023-04-20T10:15:49.963Z,8.10
2023-04-20T10:18:20.966Z,4.30
2023-04-20T10:20:49.972Z,8.50
2023-04-20T10:23:20.110Z,4.70
2023-04-20T10:26:00.623Z,5.20
2023-04-20T10:28:43.070Z,4.90
2023-04-20T10:31:17.133Z,8.30
2023-04-20T10:33:55.853Z,4.60
2023-04-20T10:36:31.272Z,5.90
2023-04-20T10:39:01.590Z,10.40
2023-04-20T10:41:29.645Z,35.80
2023-04-20T10:44:08.878Z,13.20
2023-04-20T10:46:36.997Z,4.50
2023-04-20T10:49:05.303Z,6.50
2023-04-20T10:51:33.320Z,5.60
2023-04-20T10:54:06.817Z,5.70
2023-04-20T10:56:38.980Z,5.40
2023-04-20T10:59:15.644Z,4.60
2023-04-20T11:01:45.426Z,10.70
2023-04-20T11:04:16.222Z,20.70
2023-04-20T11:06:48.580Z,9.30
2023-04-20T11:09:19.647Z,11.60
2023-04-20T11:12:02.434Z,8.20
2023-04-20T11:14:32.581Z,10.70
2023-04-20T11:17:01.203Z,10.20
2023-04-20T11:19:34.603Z,9.00
2023-04-20T11:24:37.578Z,9.50
2023-04-20T11:27:05.613Z,16.70
2023-04-20T11:29:39.102Z,14.40
2023-04-20T11:32:09.787Z,12.60
2023-04-20T11:34:39.809Z,11.10
2023-04-20T11:37:10.564Z,12.90
2023-04-20T11:39:39.477Z,10.60
2023-04-20T11:42:07.638Z,8.40
2023-04-20T11:44:37.010Z,6.60
2023-04-20T11:47:06.240Z,11.90
2023-04-20T11:49:34.624Z,6.80
2023-04-20T11:52:03.240Z,9.20
2023-04-20T11:54:34.234Z,8.30
2023-04-20T11:57:02.745Z,7.30
2023-04-20T11:59:30.780Z,6.70
2023-04-20T12:02:01.421Z,7.50
2023-04-20T12:04:31.665Z,11.50
2023-04-20T12:07:02.224Z,13.90
2023-04-20T12:09:30.762Z,8.50
2023-04-20T12:11:59.259Z,9.30
2023-04-20T12:14:27.488Z,15.60
2023-04-20T12:16:56.837Z,9.40
2023-04-20T12:19:27.021Z,19.90
2023-04-20T12:21:55.707Z,10.00
2023-04-20T12:24:24.300Z,12.80
2023-04-20T12:26:52.414Z,10.30
2023-04-20T12:29:20.728Z,9.90
2023-04-20T12:31:49.079Z,9.20
2023-04-20T12:34:17.407Z,13.60
2023-04-20T12:36:45.789Z,6.40
2023-04-20T12:39:13.832Z,8.50
2023-04-20T12:41:42.539Z,9.10
2023-04-20T12:44:11.621Z,12.50
2023-04-20T12:46:39.874Z,14.90
2023-04-20T12:49:08.008Z,11.10
2023-04-20T12:51:36.066Z,27.90
2023-04-20T12:54:04.211Z,15.30
2023-04-20T12:56:32.216Z,14.20
2023-04-20T12:59:00.352Z,29.20
2023-04-20T13:01:28.570Z,22.60
2023-04-20T13:03:57.146Z,14.80
2023-04-20T13:06:26.348Z,57.50
2023-04-20T13:08:54.347Z,51.70
2023-04-20T13:11:22.352Z,33.50
2023-04-20T13:13:50.893Z,10.10
2023-04-20T13:16:19.026Z,10.80
2023-04-20T13:18:47.117Z,12.50
2023-04-20T13:21:15.506Z,41.90
2023-04-20T13:23:43.717Z,34.90
2023-04-20T13:26:11.955Z,23.00
2023-04-20T13:28:40.270Z,35.70
2023-04-20T13:31:08.623Z,21.30
2023-04-20T13:33:37.094Z,55.60
2023-04-20T13:36:05.689Z,40.70
2023-04-20T13:38:33.921Z,38.60
2023-04-20T13:41:02.000Z,12.00
2023-04-20T13:43:30.118Z,10.80
2023-04-20T13:45:58.363Z,16.80
2023-04-20T13:48:26.481Z,22.80
2023-04-20T13:50:54.885Z,23.00
2023-04-20T13:53:22.957Z,13.10
2023-04-20T13:55:51.344Z,17.40
2023-04-20T13:58:19.593Z,13.10
2023-04-20T14:00:47.628Z,25.20
2023-04-20T14:03:18.842Z,14.70
2023-04-20T14:05:47.155Z,19.70
2023-04-20T14:08:15.977Z,22.80
2023-04-20T14:10:44.009Z,47.50
2023-04-20T14:13:12.165Z,28.70
2023-04-20T14:15:41.581Z,21.00
2023-04-20T14:18:09.750Z,17.30
2023-04-20T14:20:37.883Z,17.00
2023-04-20T14:23:08.850Z,8.60
2023-04-20T14:25:38.145Z,13.70
2023-04-20T14:28:06.893Z,21.00
2023-04-20T14:30:34.939Z,15.90
2023-04-20T14:33:04.465Z,15.20
2023-04-20T14:35:32.615Z,12.10
2023-04-20T14:38:00.709Z,9.20
2023-04-20T14:40:28.843Z,20.10
2023-04-20T14:42:57.189Z,12.70
2023-04-20T14:45:25.328Z,13.30
2023-04-20T14:47:57.335Z,14.70
2023-04-20T14:50:31.940Z,10.50
2023-04-20T14:53:00.005Z,7.50
2023-04-20T14:55:28.898Z,9.10
2023-04-20T14:57:57.874Z,10.80
2023-04-20T15:00:30.001Z,17.80
2023-04-20T15:02:59.681Z,9.40
2023-04-20T15:05:28.613Z,12.60
2023-04-20T15:07:57.835Z,11.30
2023-04-20T15:10:26.533Z,54.50
2023-04-20T15:12:54.647Z,95.50
2023-04-20T15:15:22.779Z,163.20
2023-04-20T15:17:51.027Z,81.90
2023-04-20T15:20:19.131Z,142.40
2023-04-20T15:22:47.238Z,135.60
2023-04-20T15:25:15.685Z,82.20
2023-04-20T15:27:43.673Z,65.10
2023-04-20T15:30:11.936Z,39.30
2023-04-20T15:32:41.771Z,26.60
2023-04-20T15:35:09.942Z,19.60
2023-04-20T15:37:38.507Z,40.20
2023-04-20T15:40:07.913Z,13.40
2023-04-20T15:42:36.019Z,27.20
2023-04-20T15:45:05.793Z,18.30
2023-04-20T15:47:33.850Z,35.70
2023-04-20T15:50:03.376Z,32.80
2023-04-20T15:52:32.700Z,15.20
2023-04-20T15:55:00.877Z,15.50
2023-04-20T15:57:31.301Z,9.30
2023-04-20T15:59:59.424Z,9.90
2023-04-20T16:02:27.659Z,12.00
2023-04-20T16:04:56.319Z,8.20
2023-04-20T16:07:24.656Z,10.70
2023-04-20T16:09:52.743Z,9.00
2023-04-20T16:12:20.898Z,6.70
2023-04-20T16:14:53.198Z,11.20
2023-04-20T16:17:21.943Z,9.20
2023-04-20T16:19:50.529Z,11.20
2023-04-20T16:22:18.840Z,15.80
2023-04-20T16:24:47.064Z,18.20
2023-04-20T16:27:15.145Z,21.20
2023-04-20T16:29:43.231Z,14.60
2023-04-20T16:32:11.930Z,12.40
2023-04-20T16:34:39.967Z,10.60
2023-04-20T16:37:08.212Z,9.90
2023-04-20T16:39:37.433Z,18.30
2023-04-20T16:42:05.586Z,14.20
2023-04-20T16:44:33.608Z,9.70
2023-04-20T16:47:02.163Z,11.20
2023-04-20T16:49:30.910Z,20.30
2023-04-20T16:51:59.038Z,20.00
2023-04-20T16:54:27.369Z,16.80
2023-04-20T16:56:56.081Z,13.60
2023-04-20T16:59:24.113Z,8.50
2023-04-20T17:01:52.335Z,8.90
2023-04-20T17:04:21.039Z,10.10
2023-04-20T17:06:49.564Z,10.40
2023-04-20T17:09:17.856Z,11.10
2023-04-20T17:11:46.030Z,8.00
2023-04-20T17:14:14.160Z,15.10
2023-04-20T17:16:42.238Z,11.80
2023-04-20T17:19:10.656Z,12.10
2023-04-20T17:21:40.553Z,14.10
2023-04-20T17:24:08.588Z,17.10
2023-04-20T17:26:36.666Z,16.80
2023-04-20T17:29:04.943Z,11.80
2023-04-20T17:31:33.611Z,8.80
2023-04-20T17:34:01.822Z,15.80
2023-04-20T17:36:30.012Z,12.30
2023-04-20T17:38:58.063Z,15.10
2023-04-20T17:41:26.079Z,10.90
2023-04-20T17:43:54.247Z,15.20
2023-04-20T17:46:23.374Z,15.00
2023-04-20T17:48:51.460Z,13.30
2023-04-20T17:51:19.699Z,14.80
2023-04-20T17:53:47.711Z,13.40
2023-04-20T17:56:15.906Z,12.30
2023-04-20T17:58:44.284Z,15.40
2023-04-20T18:01:12.551Z,15.40
2023-04-20T18:03:41.093Z,17.30
2023-04-20T18:06:09.221Z,10.70
2023-04-20T18:08:37.368Z,12.00
2023-04-20T18:11:06.689Z,11.80
2023-04-20T18:13:34.853Z,13.60
2023-04-20T18:16:07.337Z,12.20
2023-04-20T18:18:35.779Z,12.00
2023-04-20T18:21:06.941Z,17.50
2023-04-20T18:23:34.976Z,14.80
2023-04-20T18:26:03.432Z,14.60
2023-04-20T18:28:31.624Z,15.90
2023-04-20T18:31:01.156Z,14.40
2023-04-20T18:33:29.236Z,18.00
2023-04-20T18:35:57.370Z,18.80
2023-04-20T18:38:25.439Z,16.70
2023-04-20T18:40:53.517Z,16.30
2023-04-20T18:43:21.817Z,17.20
2023-04-20T18:45:49.923Z,18.80
2023-04-20T18:48:18.036Z,15.20
2023-04-20T18:50:48.075Z,17.30
2023-04-20T18:53:16.884Z,15.10
2023-04-20T18:55:45.209Z,16.50
2023-04-20T18:58:13.593Z,21.20
2023-04-20T19:00:42.117Z,19.00
2023-04-20T19:03:11.002Z,16.50
2023-04-20T19:05:39.596Z,18.60
2023-04-20T19:08:07.704Z,15.40
2023-04-20T19:10:35.888Z,26.70
2023-04-20T19:13:04.035Z,17.30
2023-04-20T19:15:32.200Z,15.40
2023-04-20T19:18:00.407Z,18.00
2023-04-20T19:20:28.500Z,19.60
2023-04-20T19:22:56.468Z,19.40
2023-04-20T19:25:24.768Z,17.50
2023-04-20T19:27:52.843Z,21.60
2023-04-20T19:30:21.246Z,22.30
2023-04-20T19:32:49.500Z,17.40
2023-04-20T19:35:17.760Z,15.80
2023-04-20T19:37:45.790Z,16.50
2023-04-20T19:40:13.817Z,16.00
2023-04-20T19:42:42.502Z,17.30
2023-04-20T19:45:10.968Z,15.50
2023-04-20T19:47:39.136Z,11.60
2023-04-20T19:50:07.545Z,12.50
2023-04-20T19:52:36.120Z,14.50
2023-04-20T19:55:05.528Z,15.20
2023-04-20T19:57:33.553Z,15.40
2023-04-20T20:00:01.697Z,12.40
2023-04-20T20:02:41.479Z,17.40
2023-04-20T20:05:10.574Z,11.50
2023-04-20T20:07:38.614Z,15.60
2023-04-20T20:10:07.464Z,11.70
2023-04-20T20:12:35.620Z,14.10
2023-04-20T20:15:04.967Z,10.90
2023-04-20T20:17:33.209Z,18.30
2023-04-20T20:20:02.102Z,14.90
2023-04-20T20:22:30.220Z,12.50
2023-04-20T20:24:59.100Z,12.40
2023-04-20T20:27:30.185Z,14.70
2023-04-20T20:29:58.291Z,11.80
2023-04-20T20:32:26.487Z,15.10
2023-04-20T20:34:54.537Z,13.80
2023-04-20T20:37:22.722Z,12.90
2023-04-20T20:39:50.939Z,19.70
2023-04-20T20:42:19.368Z,16.80
2023-04-20T20:44:47.418Z,17.30
2023-04-20T20:47:15.507Z,16.50
2023-04-20T20:49:43.977Z,15.00
2023-04-20T20:52:11.969Z,11.20
2023-04-20T20:54:40.028Z,13.60
2023-04-20T20:57:08.791Z,14.30
2023-04-20T20:59:36.878Z,14.70
2023-04-20T21:02:05.138Z,13.80
2023-04-20T21:04:33.411Z,11.90
2023-04-20T21:07:01.448Z,18.40
2023-04-20T21:09:29.730Z,11.90
2023-04-20T21:11:57.848Z,14.00
2023-04-20T21:14:26.420Z,16.30
2023-04-20T21:16:54.461Z,19.50
2023-04-20T21:19:22.816Z,22.40
2023-04-20T21:21:50.989Z,11.20
2023-04-20T21:24:19.338Z,15.10
2023-04-20T21:26:47.473Z,34.70
2023-04-20T21:29:15.545Z,23.20
2023-04-20T21:31:43.679Z,17.80
2023-04-20T21:34:11.761Z,13.40
2023-04-20T21:36:40.064Z,12.70
2023-04-20T21:39:08.089Z,13.10
2023-04-20T21:41:36.143Z,27.00
2023-04-20T21:44:04.597Z,23.50
2023-04-20T21:46:33.319Z,13.40
2023-04-20T21:49:01.513Z,10.80
2023-04-20T21:51:29.563Z,12.70
2023-04-20T21:53:57.675Z,16.00
2023-04-20T21:56:26.216Z,13.10
2023-04-20T21:58:54.250Z,15.50
2023-04-20T22:01:22.376Z,16.10
2023-04-20T22:03:50.659Z,12.50
2023-04-20T22:06:18.943Z,15.90
2023-04-20T22:08:47.082Z,24.20
2023-04-20T22:11:15.081Z,12.10
2023-04-20T22:13:44.252Z,15.10
2023-04-20T22:16:12.339Z,17.10
2023-04-20T22:18:40.446Z,10.10
2023-04-20T22:21:08.455Z,11.20
2023-04-20T22:23:36.565Z,16.60
2023-04-20T22:26:05.018Z,12.30
2023-04-20T22:28:33.080Z,14.80
2023-04-20T22:31:01.389Z,14.70
2023-04-20T22:33:29.416Z,11.20
2023-04-20T22:35:57.720Z,11.60
2023-04-20T22:38:26.032Z,20.70
2023-04-20T22:40:54.117Z,14.10
2023-04-20T22:43:22.705Z,19.00
2023-04-20T22:45:53.059Z,15.10
2023-04-20T22:48:21.609Z,13.60
2023-04-20T22:50:49.834Z,16.50
2023-04-20T22:53:17.871Z,13.70
2023-04-20T22:55:46.169Z,15.40
2023-04-20T22:58:14.340Z,11.00
2023-04-20T23:00:42.866Z,20.90
2023-04-20T23:03:11.072Z,9.90
2023-04-20T23:05:39.359Z,13.60
2023-04-20T23:08:07.414Z,10.90
2023-04-20T23:10:35.503Z,13.40
2023-04-20T23:13:05.182Z,16.00
2023-04-20T23:15:33.303Z,14.50
2023-04-20T23:18:01.456Z,11.80
2023-04-20T23:20:29.618Z,7.90
2023-04-20T23:22:57.765Z,15.80
2023-04-20T23:25:26.482Z,11.10
2023-04-20T23:27:54.695Z,13.00
2023-04-20T23:30:22.961Z,11.60
2023-04-20T23:32:51.037Z,20.60
2023-04-20T23:35:19.468Z,13.60
2023-04-20T23:37:47.705Z,12.30
2023-04-20T23:40:15.812Z,9.30
2023-04-20T23:42:43.943Z,11.40
2023-04-20T23:45:12.425Z,21.20
2023-04-20T23:47:40.586Z,19.40
2023-04-20T23:50:09.339Z,12.50
2023-04-20T23:52:37.490Z,16.80
2023-04-20T23:55:05.861Z,13.00
2023-04-20T23:57:34.065Z,13.80
